Kenneth Carl — WDF8246 — position and weather

sailwx.info

Track history (hours):
 
Tides and Currents Weather Stations Pressure Air Temp Water Temp Dewpoint Dewpoint Depression Visibility Wind Speed Wind Dir Waves Ship Positions

Kenneth Carl

Owner: So. Cal. Ship Services, Inc., San Pedro, CA. More information available from US FCC via Universal Licensing System and Coast Guard Vessel Documentation Center.

Last reported at 2016-Feb-10 22:31 UTC. Time now 2016-Feb-11 15:09 UTC.
Position N 33°42' W 118°14'.

Length 31 m; draft 3 m.

Type: Ship. MMSI: 367492920.

Date/timePositionNaut miles runAvg speedWind from/ knotsBaromVisibWave heightAir tempDewpointWater temp
2016-Feb-10 22:31N 33°42' W 118°14'9 9.3
2016-Feb-10 21:33N 33°35' W 118°08'0 0.4
2016-Feb-10 20:34N 33°35' W 118°08'2 1.6
2016-Feb-10 19:33N 33°34' W 118°07'1 1.2
2016-Feb-10 18:33N 33°35' W 118°08'0 0.1
2016-Feb-10 17:33N 33°35' W 118°08'0 0.0
2016-Feb-10 16:33N 33°35' W 118°08'2 2.5
2016-Feb-10 15:33N 33°37' W 118°09'9 1.5
2016-Feb-10 09:28N 33°44' W 118°16'0 0.0
2016-Feb-10 08:31N 33°44' W 118°16'0 0.0
2016-Feb-10 07:28N 33°44' W 118°16'12 1.1
2016-Feb-09 21:07N 33°35' W 118°08'1 2.0
2016-Feb-09 20:31N 33°34' W 118°07'0 0.0
2016-Feb-09 19:31N 33°34' W 118°07'0 0.0
2016-Feb-09 18:33N 33°34' W 118°07'0 0.1
2016-Feb-09 17:33N 33°34' W 118°07'7 6.5
2016-Feb-09 16:29N 33°39' W 118°12'  
2016-Feb-06 18:17N 33°35' W 118°08'12 0.3
2016-Feb-05 03:32N 33°44' W 118°16'7 2.5
2016-Feb-05 00:33N 33°38' W 118°10'4 4.3
2016-Feb-04 23:33N 33°35' W 118°08'0 0.0
2016-Feb-04 22:33N 33°35' W 118°08'0 0.0
2016-Feb-04 21:33N 33°35' W 118°08'0 0.1
2016-Feb-04 20:23N 33°35' W 118°08'1 1.4
2016-Feb-04 19:33N 33°34' W 118°07'0 0.1
2016-Feb-04 18:22N 33°34' W 118°07'6 7.1
2016-Feb-04 17:32N 33°38' W 118°12'7 0.4
2016-Feb-04 01:33N 33°44' W 118°16'8 7.5
2016-Feb-04 00:30N 33°38' W 118°10'4 3.9
2016-Feb-03 23:32N 33°35' W 118°08'1 1.3
2016-Feb-03 22:33N 33°34' W 118°07'1 1.2
2016-Feb-03 21:33N 33°35' W 118°08'0 0.0
2016-Feb-02 17:05N 33°35' W 118°08'12 1.7
2016-Feb-02 10:13N 33°44' W 118°16'0 0.0
2016-Feb-01 13:28N 33°44' W 118°16'0 0.0
2016-Feb-01 10:06N 33°44' W 118°16'0 0.0
2016-Feb-01 06:29N 33°44' W 118°16'  
Track history (hours):
 
Tides and Currents Weather Stations Pressure Air Temp Water Temp Dewpoint Dewpoint Depression Visibility Wind Speed Wind Dir Waves Ship Positions

Kenneth Carl

Owner: So. Cal. Ship Services, Inc., San Pedro, CA. More information available from US FCC via Universal Licensing System and Coast Guard Vessel Documentation Center.

Last reported at 2016-Feb-10 22:31 UTC. Time now 2016-Feb-11 15:09 UTC.
Position N 33°42' W 118°14'.

Length 31 m; draft 3 m.

Type: Ship. MMSI: 367492920.

Date/timePositionNaut miles runAvg speedWind from/ knotsBaromVisibWave heightAir tempDewpointWater temp
2016-Feb-10 22:31N 33°42' W 118°14'9 9.3
2016-Feb-10 21:33N 33°35' W 118°08'0 0.4
2016-Feb-10 20:34N 33°35' W 118°08'2 1.6
2016-Feb-10 19:33N 33°34' W 118°07'1 1.2
2016-Feb-10 18:33N 33°35' W 118°08'0 0.1
2016-Feb-10 17:33N 33°35' W 118°08'0 0.0
2016-Feb-10 16:33N 33°35' W 118°08'2 2.5
2016-Feb-10 15:33N 33°37' W 118°09'9 1.5
2016-Feb-10 09:28N 33°44' W 118°16'0 0.0
2016-Feb-10 08:31N 33°44' W 118°16'0 0.0
2016-Feb-10 07:28N 33°44' W 118°16'12 1.1
2016-Feb-09 21:07N 33°35' W 118°08'1 2.0
2016-Feb-09 20:31N 33°34' W 118°07'0 0.0
2016-Feb-09 19:31N 33°34' W 118°07'0 0.0
2016-Feb-09 18:33N 33°34' W 118°07'0 0.1
2016-Feb-09 17:33N 33°34' W 118°07'7 6.5
2016-Feb-09 16:29N 33°39' W 118°12'  
2016-Feb-06 18:17N 33°35' W 118°08'12 0.3
2016-Feb-05 03:32N 33°44' W 118°16'7 2.5
2016-Feb-05 00:33N 33°38' W 118°10'4 4.3
2016-Feb-04 23:33N 33°35' W 118°08'0 0.0
2016-Feb-04 22:33N 33°35' W 118°08'0 0.0
2016-Feb-04 21:33N 33°35' W 118°08'0 0.1
2016-Feb-04 20:23N 33°35' W 118°08'1 1.4
2016-Feb-04 19:33N 33°34' W 118°07'0 0.1
2016-Feb-04 18:22N 33°34' W 118°07'6 7.1
2016-Feb-04 17:32N 33°38' W 118°12'7 0.4
2016-Feb-04 01:33N 33°44' W 118°16'8 7.5
2016-Feb-04 00:30N 33°38' W 118°10'4 3.9
2016-Feb-03 23:32N 33°35' W 118°08'1 1.3
2016-Feb-03 22:33N 33°34' W 118°07'1 1.2
2016-Feb-03 21:33N 33°35' W 118°08'0 0.0
2016-Feb-02 17:05N 33°35' W 118°08'12 1.7
2016-Feb-02 10:13N 33°44' W 118°16'0 0.0
2016-Feb-01 13:28N 33°44' W 118°16'0 0.0
2016-Feb-01 10:06N 33°44' W 118°16'0 0.0
2016-Feb-01 06:29N 33°44' W 118°16'  

Dump ship's entire track history